CheckWX is a tool to help pilots better visualize weather data.  It is not intended as a substitute for an official pre-flight weather briefing.

16:52:21 UTC

LYBE TAF
Belgrade Nikola Tesla Airport
Belgrade, Serbia
TAF LYBE 151700Z 1518/1618 01005KT CAVOK TX30/1613Z TN15/1603Z

Jul-15@
18:00 UTC

Jul-15 @ 18:00 UTC

Jul-16@
18:00 UTC

Jul-16 @ 18:00 UTC

TAF LYBE 151700Z 1518/1618 01005KT CAVOK TX30/1613Z TN15/1603Z
Wind
  • 010° at 5 KTS
Cloud Levels
  • No significant clouds